CheckWX is a tool to help pilots better visualize weather data.  It is not intended as a substitute for an official pre-flight weather briefing.

20:52:54 UTC

KPMD TAF
Palmdale Usaf Plant 42 Airport
Palmdale, California, USA
KPMD 221749Z 2218/2318 30010KT P6SM SKC FM222200 28017G25KT P6SM SCT250 FM230500 25012KT P6SM SCT200

Mar-22@
18:00 UTC

Mar-22 @ 18:00 UTC

Mar-22@
22:00 UTC

Mar-22 @ 22:00 UTC

KPMD 221749Z 2218/2318 30010KT P6SM SKC
Wind
  • 300° at 10 KTS
Cloud Levels
  • Clear skies

Mar-22@
22:00 UTC

Mar-22 @ 22:00 UTC

Mar-23@
05:00 UTC

Mar-23 @ 05:00 UTC

FM222200 28017G25KT P6SM SCT250

From

From Standard forecast or significant change

Wind
  • 280° at 17 KTS
  • {Gusting to 25 KTS
Cloud Levels
  • Scattered at 25,000' AGL

Mar-23@
05:00 UTC

Mar-23 @ 05:00 UTC

Mar-23@
18:00 UTC

Mar-23 @ 18:00 UTC

FM230500 25012KT P6SM SCT200

From

From Standard forecast or significant change

Wind
  • 250° at 12 KTS
Cloud Levels
  • Scattered at 20,000' AGL